Antelope, KS

5:32 AM CDT on July 30, 2014 (GMT -0500)
Salina Municipal (KSLN) Elev 1286 ft | 38.80 °N, 97.65 °W | Change Station

Current weather conditions updated 39 minutes ago

Mostly Cloudy
Mostly Cloudy
72 °F
Feels Like 72 °F
N
9
Wind Variable Wind from NE

Today is forecast to be Much Cooler than yesterday. Chance of showers.

Today
High -- | Low -- °F
--% Chance of Precip.
Yesterday
High -- | Low -- °F
Precip. -- in
6:28 AM 8:39 PM
Waxing Crescent, 11% visible
Pressure 30.07 in
Visibility 10.0 miles
Clouds Scattered Clouds 4800 ft
Mostly Cloudy 7500 ft
Dew Point 59 °F
Humidity 64%
Rainfall 0.00 in
Snow Depth Not available.
UV 0 out of 12
Pollen 6.30 out of 12
Air Quality Not available.
Flu Activity Not available.
METAR KSLN 300953Z 05008KT 10SM SCT048 BKN075 22/15 A3011 RMK AO2 SLP182 T02220150

More Conditions Fewer Conditions

Pressure 30.07 in
Visibility 10.0 miles
Clouds Scattered Clouds 4800 ft
Mostly Cloudy 7500 ft
Dew Point 59 °F
Humidity 64%
Rainfall 0.00 in
Snow Depth Not available.
UV 0 out of 12
Pollen 6.30 out of 12
Air Quality Not available.
Flu Activity Not available.
METAR KSLN 300953Z 05008KT 10SM SCT048 BKN075 22/15 A3011 RMK AO2 SLP182 T02220150

More Conditions Fewer Conditions

10-Day Weather Forecast

Almanac

Astronomy

Jul. 30, 2014 Rise Set
Actual Time 6:28 AM CDT 8:39 PM CDT
Civil Twilight 5:58 AM CDT 9:09 PM CDT
Nautical Twilight 5:22 AM CDT 9:45 PM CDT
Astronomical Twilight 4:42 AM CDT 10:25 PM CDT
Moon 9:57 AM CDT 10:26 PM CDT
Length of Visible Light 15h 11m
Length of Day
14h 11m
Tomorrow will be 1m 49s shorter.
Waxing Crescent, 11% of the Moon is Illuminated
Today
Waxing Crescent
Aug 3
First Quarter
Aug 10
Full
Aug 17
Last Quarter
Aug 25
New

Today's Extremes

State Highs State Lows

Community

WunderPhotos

Upload Photos

1,739,037 photos uploaded!

WunderBlogs® & News

Nearby

Snow Depth

Station Depth Elevation
No new snow has been reported.

Earthquake Activity

City Distance Mag. Time & Date
Helena, Oklahoma 145 miles 3.3 11:56 PM CDT
2014-07-24
Minimum magnitude displayed is 2.5.

Coastal Water Temperatures

Place Temperature
No Stations Reporting

Nearby Weather Stations

Station Location Temp. Heat Index Dew Point Humidity Wind Precip. Elev Updated Type
Marion County Lake, Marion, KS 70.3 °F 76 °F 57 °F 62% South  at  1.6 mph 0.00 in / hr 1362 ft 5:32 AM CDT Rapid Fire
South Cottonwood Hillsboro, Hillsboro, KS 67.4 °F - 60 °F 76% East  at  0.0 mph 0.00 in / hr 1388 ft 5:32 AM CDT Rapid Fire
MesoWest LATIMR , White City, KS 66 °F - - - North  at  - 0.00 in / hr 1425 ft 2:35 AM CDT MADIS
RAWS TALLGRASS PRAIRIE KS, Strong City, KS 68 °F - 60 °F 76% South  at  5 mph 0.00 in / hr 1230 ft 4:30 AM CDT MADIS

Show More Stations Show Fewer Stations